Terminal Aerodrome Forecast
Issued by NWS

Home | Current Version | Previous Version | Text Only | Print | Product List | Glossary On
Versions: 1 2 3 4 5 6 7 8 9 10 11 12 13
000
FTUS46 KHNX 201730
TAFFAT
TAF
KFAT 201730Z 2018/2118 09005KT P6SM BKN050 OVC080
     FM210200 VRB03KT P6SM SCT035 BKN050
      TEMPO 2104/2108 5SM BR BKN035
     FM210800 VRB03KT 5SM BR SCT015 BKN035
      TEMPO 2111/2115 2SM BR BKN015=

USA.gov is the U.S. government's official web portal to all federal, state and local government web resources and services.